Agua Nueva, Texas
Current Conditions -  °F | °C
As of 7:35 AM on Thursday 30 Oct 2014 (Local Time) from KHBV Reporting Station
Haze Haze  
Wind Chill: 61°   Ceiling: Unl
Heat Index: 61°   Visibility: 2.5mi
Dew Point: 59°   Wind: 5mph
Humidity: 95%   Direction: 360°N
Pressure: 30.09"   Gusts: NA
Location:  27.0695°N, 98.7494°W
Report Text: KHBV 301235Z AUTO 36004KT 2 1/2SM BR CLR 16/15 A3009 RMK AO2 T01600152
Loading
Personal Weather Stations






























Interactive Weather Map
Tropical Storm Tracking
New forecast layout! Learn more

10-Day Weather Forecast

Advertisements
Track Severe Weather on mobile